sensor_id;sensor_type;location;lat;lon;timestamp;temperature;humidity
26336;DHT22;14047;50.936;4.654;2023-07-08T00:01:19;19.80;99.90
26336;DHT22;14047;50.936;4.654;2023-07-08T00:03:46;19.80;99.90
26336;DHT22;14047;50.936;4.654;2023-07-08T00:06:24;19.70;99.90
26336;DHT22;14047;50.936;4.654;2023-07-08T00:08:51;19.60;99.90
26336;DHT22;14047;50.936;4.654;2023-07-08T00:11:17;19.60;99.90
26336;DHT22;14047;50.936;4.654;2023-07-08T00:13:44;19.50;99.90
26336;DHT22;14047;50.936;4.654;2023-07-08T00:16:19;19.50;99.90
26336;DHT22;14047;50.936;4.654;2023-07-08T00:18:45;19.40;99.90
26336;DHT22;14047;50.936;4.654;2023-07-08T00:21:13;19.40;99.90
26336;DHT22;14047;50.936;4.654;2023-07-08T00:23:50;19.40;99.90
26336;DHT22;14047;50.936;4.654;2023-07-08T00:26:22;19.30;99.90
26336;DHT22;14047;50.936;4.654;2023-07-08T00:28:50;19.30;99.90
26336;DHT22;14047;50.936;4.654;2023-07-08T00:31:16;19.30;99.90
26336;DHT22;14047;50.936;4.654;2023-07-08T00:33:42;19.30;99.90
26336;DHT22;14047;50.936;4.654;2023-07-08T00:36:11;19.30;99.90
26336;DHT22;14047;50.936;4.654;2023-07-08T00:38:38;19.30;99.90
26336;DHT22;14047;50.936;4.654;2023-07-08T00:41:09;19.30;99.90
26336;DHT22;14047;50.936;4.654;2023-07-08T00:43:59;19.30;99.90
26336;DHT22;14047;50.936;4.654;2023-07-08T00:51:34;19.20;99.90
26336;DHT22;14047;50.936;4.654;2023-07-08T00:54:03;19.20;99.90
26336;DHT22;14047;50.936;4.654;2023-07-08T00:56:55;19.10;99.90
26336;DHT22;14047;50.936;4.654;2023-07-08T00:59:28;19.10;99.90
26336;DHT22;14047;50.936;4.654;2023-07-08T01:01:56;19.10;99.90
26336;DHT22;14047;50.936;4.654;2023-07-08T01:04:29;19.10;99.90
26336;DHT22;14047;50.936;4.654;2023-07-08T01:06:59;19.00;99.90
26336;DHT22;14047;50.936;4.654;2023-07-08T01:09:30;18.90;99.90
26336;DHT22;14047;50.936;4.654;2023-07-08T01:12:01;18.90;99.90
26336;DHT22;14047;50.936;4.654;2023-07-08T01:14:31;18.80;99.90
26336;DHT22;14047;50.936;4.654;2023-07-08T01:16:59;18.80;99.90
26336;DHT22;14047;50.936;4.654;2023-07-08T01:19:25;18.80;99.90
26336;DHT22;14047;50.936;4.654;2023-07-08T01:22:02;18.70;99.90
26336;DHT22;14047;50.936;4.654;2023-07-08T01:24:31;18.50;99.90
26336;DHT22;14047;50.936;4.654;2023-07-08T01:27:00;18.40;99.90
26336;DHT22;14047;50.936;4.654;2023-07-08T01:29:27;18.30;99.90
26336;DHT22;14047;50.936;4.654;2023-07-08T01:31:57;18.30;99.90
26336;DHT22;14047;50.936;4.654;2023-07-08T01:34:25;18.40;99.90
26336;DHT22;14047;50.936;4.654;2023-07-08T01:36:53;18.40;99.90
26336;DHT22;14047;50.936;4.654;2023-07-08T01:39:23;18.30;99.90
26336;DHT22;14047;50.936;4.654;2023-07-08T01:41:50;18.20;99.90
26336;DHT22;14047;50.936;4.654;2023-07-08T01:44:28;18.10;99.90
26336;DHT22;14047;50.936;4.654;2023-07-08T01:46:57;18.00;99.90
26336;DHT22;14047;50.936;4.654;2023-07-08T01:49:26;18.00;99.90
26336;DHT22;14047;50.936;4.654;2023-07-08T01:51:52;18.10;99.90
26336;DHT22;14047;50.936;4.654;2023-07-08T01:54:18;18.00;99.90
26336;DHT22;14047;50.936;4.654;2023-07-08T01:56:44;18.00;99.90
26336;DHT22;14047;50.936;4.654;2023-07-08T01:59:10;18.00;99.90
26336;DHT22;14047;50.936;4.654;2023-07-08T02:01:36;18.00;99.90
26336;DHT22;14047;50.936;4.654;2023-07-08T02:04:02;18.00;99.90
26336;DHT22;14047;50.936;4.654;2023-07-08T02:06:28;18.00;99.90
26336;DHT22;14047;50.936;4.654;2023-07-08T02:08:54;18.00;99.90
26336;DHT22;14047;50.936;4.654;2023-07-08T02:11:24;17.90;99.90
26336;DHT22;14047;50.936;4.654;2023-07-08T02:13:50;17.80;99.90
26336;DHT22;14047;50.936;4.654;2023-07-08T02:16:16;17.90;99.90
26336;DHT22;14047;50.936;4.654;2023-07-08T02:18:42;17.90;99.90
26336;DHT22;14047;50.936;4.654;2023-07-08T02:21:08;17.70;99.90
26336;DHT22;14047;50.936;4.654;2023-07-08T02:23:34;17.70;99.90
26336;DHT22;14047;50.936;4.654;2023-07-08T02:26:00;17.60;99.90
26336;DHT22;14047;50.936;4.654;2023-07-08T02:28:26;17.50;99.90
26336;DHT22;14047;50.936;4.654;2023-07-08T02:30:52;17.60;99.90
26336;DHT22;14047;50.936;4.654;2023-07-08T02:33:19;17.60;99.90
26336;DHT22;14047;50.936;4.654;2023-07-08T02:35:45;17.50;99.90
26336;DHT22;14047;50.936;4.654;2023-07-08T02:38:13;17.50;99.90
26336;DHT22;14047;50.936;4.654;2023-07-08T02:40:40;17.60;99.90
26336;DHT22;14047;50.936;4.654;2023-07-08T02:43:06;17.50;99.90
26336;DHT22;14047;50.936;4.654;2023-07-08T02:45:32;17.50;99.90
26336;DHT22;14047;50.936;4.654;2023-07-08T02:47:57;17.50;99.90
26336;DHT22;14047;50.936;4.654;2023-07-08T02:50:25;17.50;99.90
26336;DHT22;14047;50.936;4.654;2023-07-08T02:52:50;17.50;99.90
26336;DHT22;14047;50.936;4.654;2023-07-08T02:55:16;17.50;99.90
26336;DHT22;14047;50.936;4.654;2023-07-08T02:57:42;17.50;99.90
26336;DHT22;14047;50.936;4.654;2023-07-08T03:00:09;17.50;99.90
26336;DHT22;14047;50.936;4.654;2023-07-08T03:02:35;17.60;99.90
26336;DHT22;14047;50.936;4.654;2023-07-08T03:05:01;17.50;99.90
26336;DHT22;14047;50.936;4.654;2023-07-08T03:07:27;17.40;99.90
26336;DHT22;14047;50.936;4.654;2023-07-08T03:09:53;17.40;99.90
26336;DHT22;14047;50.936;4.654;2023-07-08T03:12:19;17.50;99.90
26336;DHT22;14047;50.936;4.654;2023-07-08T03:14:45;17.50;99.90
26336;DHT22;14047;50.936;4.654;2023-07-08T03:17:11;17.50;99.90
26336;DHT22;14047;50.936;4.654;2023-07-08T03:19:37;17.60;99.90
26336;DHT22;14047;50.936;4.654;2023-07-08T03:22:03;17.70;99.90
26336;DHT22;14047;50.936;4.654;2023-07-08T03:24:31;17.70;99.90
26336;DHT22;14047;50.936;4.654;2023-07-08T03:27:00;17.70;99.90
26336;DHT22;14047;50.936;4.654;2023-07-08T03:29:31;17.60;99.90
26336;DHT22;14047;50.936;4.654;2023-07-08T03:31:57;17.50;99.90
26336;DHT22;14047;50.936;4.654;2023-07-08T03:34:23;17.50;99.90
26336;DHT22;14047;50.936;4.654;2023-07-08T03:36:50;17.50;99.90
26336;DHT22;14047;50.936;4.654;2023-07-08T03:39:22;17.60;99.90
26336;DHT22;14047;50.936;4.654;2023-07-08T03:41:50;17.70;99.90
26336;DHT22;14047;50.936;4.654;2023-07-08T03:44:17;17.60;99.90
26336;DHT22;14047;50.936;4.654;2023-07-08T03:46:44;17.70;99.90
26336;DHT22;14047;50.936;4.654;2023-07-08T03:49:11;17.70;99.90
26336;DHT22;14047;50.936;4.654;2023-07-08T03:51:39;17.70;99.90
26336;DHT22;14047;50.936;4.654;2023-07-08T03:54:07;17.70;99.90
26336;DHT22;14047;50.936;4.654;2023-07-08T03:56:35;17.70;99.90
26336;DHT22;14047;50.936;4.654;2023-07-08T03:59:02;17.80;99.90
26336;DHT22;14047;50.936;4.654;2023-07-08T04:01:29;17.80;99.90
26336;DHT22;14047;50.936;4.654;2023-07-08T04:03:57;17.80;99.90
26336;DHT22;14047;50.936;4.654;2023-07-08T04:06:24;17.80;99.90
26336;DHT22;14047;50.936;4.654;2023-07-08T04:08:51;17.70;99.90
26336;DHT22;14047;50.936;4.654;2023-07-08T04:11:20;17.70;99.90
26336;DHT22;14047;50.936;4.654;2023-07-08T04:13:46;17.70;99.90
26336;DHT22;14047;50.936;4.654;2023-07-08T04:16:28;17.80;99.90
26336;DHT22;14047;50.936;4.654;2023-07-08T04:18:55;17.90;99.90
26336;DHT22;14047;50.936;4.654;2023-07-08T04:21:22;17.90;99.90
26336;DHT22;14047;50.936;4.654;2023-07-08T04:23:49;17.90;99.90
26336;DHT22;14047;50.936;4.654;2023-07-08T04:26:15;18.10;99.90
26336;DHT22;14047;50.936;4.654;2023-07-08T04:28:42;18.30;99.90
26336;DHT22;14047;50.936;4.654;2023-07-08T04:31:08;18.50;99.90
26336;DHT22;14047;50.936;4.654;2023-07-08T04:33:34;18.70;99.90
26336;DHT22;14047;50.936;4.654;2023-07-08T04:36:00;18.90;99.90
26336;DHT22;14047;50.936;4.654;2023-07-08T04:38:26;19.20;99.90
26336;DHT22;14047;50.936;4.654;2023-07-08T04:40:53;19.40;99.90
26336;DHT22;14047;50.936;4.654;2023-07-08T04:43:21;19.60;99.90
26336;DHT22;14047;50.936;4.654;2023-07-08T04:45:49;19.90;99.90
26336;DHT22;14047;50.936;4.654;2023-07-08T04:48:20;20.00;99.90
26336;DHT22;14047;50.936;4.654;2023-07-08T04:50:49;20.10;99.90
26336;DHT22;14047;50.936;4.654;2023-07-08T04:53:17;20.20;99.90
26336;DHT22;14047;50.936;4.654;2023-07-08T04:55:54;20.20;99.90
26336;DHT22;14047;50.936;4.654;2023-07-08T04:58:21;20.10;99.90
26336;DHT22;14047;50.936;4.654;2023-07-08T05:00:47;20.10;99.90
26336;DHT22;14047;50.936;4.654;2023-07-08T05:03:13;20.10;99.90
26336;DHT22;14047;50.936;4.654;2023-07-08T05:05:39;20.20;99.90
26336;DHT22;14047;50.936;4.654;2023-07-08T05:08:06;20.20;99.90
26336;DHT22;14047;50.936;4.654;2023-07-08T05:10:33;20.20;99.90
26336;DHT22;14047;50.936;4.654;2023-07-08T05:13:00;20.20;99.90
26336;DHT22;14047;50.936;4.654;2023-07-08T05:15:26;20.20;99.90
26336;DHT22;14047;50.936;4.654;2023-07-08T05:17:52;20.30;99.90
26336;DHT22;14047;50.936;4.654;2023-07-08T05:20:18;20.30;99.90
26336;DHT22;14047;50.936;4.654;2023-07-08T05:22:45;20.40;99.90
26336;DHT22;14047;50.936;4.654;2023-07-08T05:25:12;20.40;99.90
26336;DHT22;14047;50.936;4.654;2023-07-08T05:27:38;20.50;99.90
26336;DHT22;14047;50.936;4.654;2023-07-08T05:30:05;20.50;99.90
26336;DHT22;14047;50.936;4.654;2023-07-08T05:32:32;20.60;99.90
26336;DHT22;14047;50.936;4.654;2023-07-08T05:34:58;20.70;99.90
26336;DHT22;14047;50.936;4.654;2023-07-08T05:37:24;20.70;99.90
26336;DHT22;14047;50.936;4.654;2023-07-08T05:39:54;20.80;99.90
26336;DHT22;14047;50.936;4.654;2023-07-08T05:42:21;20.90;99.90
26336;DHT22;14047;50.936;4.654;2023-07-08T05:44:47;21.00;99.90
26336;DHT22;14047;50.936;4.654;2023-07-08T05:47:14;21.00;99.90
26336;DHT22;14047;50.936;4.654;2023-07-08T05:49:41;21.00;99.90
26336;DHT22;14047;50.936;4.654;2023-07-08T05:52:07;21.20;99.90
26336;DHT22;14047;50.936;4.654;2023-07-08T05:54:41;21.30;99.90
26336;DHT22;14047;50.936;4.654;2023-07-08T05:57:09;21.40;99.90
26336;DHT22;14047;50.936;4.654;2023-07-08T05:59:36;21.60;99.90
26336;DHT22;14047;50.936;4.654;2023-07-08T06:02:05;21.70;99.90
26336;DHT22;14047;50.936;4.654;2023-07-08T06:04:31;21.80;99.90
26336;DHT22;14047;50.936;4.654;2023-07-08T06:06:58;21.80;99.90
26336;DHT22;14047;50.936;4.654;2023-07-08T06:09:24;21.80;99.90
26336;DHT22;14047;50.936;4.654;2023-07-08T06:11:50;21.60;99.90
26336;DHT22;14047;50.936;4.654;2023-07-08T06:14:16;21.70;99.90
26336;DHT22;14047;50.936;4.654;2023-07-08T06:16:42;21.80;99.90
26336;DHT22;14047;50.936;4.654;2023-07-08T06:19:09;22.00;99.90
26336;DHT22;14047;50.936;4.654;2023-07-08T06:21:35;22.10;99.90
26336;DHT22;14047;50.936;4.654;2023-07-08T06:24:01;22.20;99.90
26336;DHT22;14047;50.936;4.654;2023-07-08T06:26:27;22.30;99.90
26336;DHT22;14047;50.936;4.654;2023-07-08T06:28:53;22.40;99.90
26336;DHT22;14047;50.936;4.654;2023-07-08T06:31:19;22.50;99.90
26336;DHT22;14047;50.936;4.654;2023-07-08T06:33:45;22.50;99.90
26336;DHT22;14047;50.936;4.654;2023-07-08T06:36:11;22.60;99.90
26336;DHT22;14047;50.936;4.654;2023-07-08T06:38:37;22.80;99.90
26336;DHT22;14047;50.936;4.654;2023-07-08T06:41:03;22.90;99.90
26336;DHT22;14047;50.936;4.654;2023-07-08T06:43:28;22.90;99.90
26336;DHT22;14047;50.936;4.654;2023-07-08T06:45:59;22.80;99.90
26336;DHT22;14047;50.936;4.654;2023-07-08T06:48:25;22.90;99.90
26336;DHT22;14047;50.936;4.654;2023-07-08T06:50:51;23.00;99.90
26336;DHT22;14047;50.936;4.654;2023-07-08T06:53:17;23.10;99.90
26336;DHT22;14047;50.936;4.654;2023-07-08T06:55:44;23.20;99.90
26336;DHT22;14047;50.936;4.654;2023-07-08T06:58:11;23.20;99.90
26336;DHT22;14047;50.936;4.654;2023-07-08T07:00:40;23.40;99.90
26336;DHT22;14047;50.936;4.654;2023-07-08T07:03:06;23.60;99.90
26336;DHT22;14047;50.936;4.654;2023-07-08T07:05:32;23.80;99.90
26336;DHT22;14047;50.936;4.654;2023-07-08T07:07:58;24.10;99.90
26336;DHT22;14047;50.936;4.654;2023-07-08T07:10:24;24.20;99.90
26336;DHT22;14047;50.936;4.654;2023-07-08T07:12:50;24.30;99.90
26336;DHT22;14047;50.936;4.654;2023-07-08T07:15:16;24.50;99.90
26336;DHT22;14047;50.936;4.654;2023-07-08T07:17:42;24.70;99.90
26336;DHT22;14047;50.936;4.654;2023-07-08T07:20:08;24.90;99.90
26336;DHT22;14047;50.936;4.654;2023-07-08T07:22:35;25.10;99.90
26336;DHT22;14047;50.936;4.654;2023-07-08T07:25:01;25.20;99.90
26336;DHT22;14047;50.936;4.654;2023-07-08T07:27:27;25.30;99.90
26336;DHT22;14047;50.936;4.654;2023-07-08T07:29:53;25.50;99.90
26336;DHT22;14047;50.936;4.654;2023-07-08T07:32:23;25.70;99.90
26336;DHT22;14047;50.936;4.654;2023-07-08T07:34:50;25.80;99.90
26336;DHT22;14047;50.936;4.654;2023-07-08T07:37:19;25.80;99.90
26336;DHT22;14047;50.936;4.654;2023-07-08T07:39:45;25.80;99.90
26336;DHT22;14047;50.936;4.654;2023-07-08T07:42:12;25.90;99.90
26336;DHT22;14047;50.936;4.654;2023-07-08T07:44:38;26.10;99.90
26336;DHT22;14047;50.936;4.654;2023-07-08T07:47:06;26.30;99.90
26336;DHT22;14047;50.936;4.654;2023-07-08T07:49:32;26.40;99.90
26336;DHT22;14047;50.936;4.654;2023-07-08T07:51:58;26.60;99.90
26336;DHT22;14047;50.936;4.654;2023-07-08T07:54:24;26.80;99.90
26336;DHT22;14047;50.936;4.654;2023-07-08T07:56:51;26.90;99.90
26336;DHT22;14047;50.936;4.654;2023-07-08T07:59:17;27.10;99.90
26336;DHT22;14047;50.936;4.654;2023-07-08T08:01:43;27.10;99.90
26336;DHT22;14047;50.936;4.654;2023-07-08T08:04:10;27.40;99.90
26336;DHT22;14047;50.936;4.654;2023-07-08T08:06:37;27.50;99.90
26336;DHT22;14047;50.936;4.654;2023-07-08T08:09:04;27.70;99.90
26336;DHT22;14047;50.936;4.654;2023-07-08T08:11:30;27.80;99.90
26336;DHT22;14047;50.936;4.654;2023-07-08T08:13:57;27.90;99.90
26336;DHT22;14047;50.936;4.654;2023-07-08T08:16:23;28.00;99.90
26336;DHT22;14047;50.936;4.654;2023-07-08T08:18:49;28.10;99.90
26336;DHT22;14047;50.936;4.654;2023-07-08T08:21:15;28.20;99.90
26336;DHT22;14047;50.936;4.654;2023-07-08T08:23:41;28.20;99.90
26336;DHT22;14047;50.936;4.654;2023-07-08T08:26:07;28.20;99.90
26336;DHT22;14047;50.936;4.654;2023-07-08T08:28:33;28.20;99.90
26336;DHT22;14047;50.936;4.654;2023-07-08T08:30:59;28.40;99.90
26336;DHT22;14047;50.936;4.654;2023-07-08T08:33:25;28.60;99.90
26336;DHT22;14047;50.936;4.654;2023-07-08T08:35:51;28.80;99.90
26336;DHT22;14047;50.936;4.654;2023-07-08T08:38:17;29.00;99.90
26336;DHT22;14047;50.936;4.654;2023-07-08T08:40:43;29.20;99.90
26336;DHT22;14047;50.936;4.654;2023-07-08T08:46:02;29.60;99.90
26336;DHT22;14047;50.936;4.654;2023-07-08T08:48:32;29.60;99.90
26336;DHT22;14047;50.936;4.654;2023-07-08T08:51:14;29.70;99.90
26336;DHT22;14047;50.936;4.654;2023-07-08T08:53:41;29.80;99.90
26336;DHT22;14047;50.936;4.654;2023-07-08T08:56:24;30.00;99.90
26336;DHT22;14047;50.936;4.654;2023-07-08T08:58:54;30.30;99.90
26336;DHT22;14047;50.936;4.654;2023-07-08T09:01:21;30.40;99.90
26336;DHT22;14047;50.936;4.654;2023-07-08T09:04:11;30.50;99.90
26336;DHT22;14047;50.936;4.654;2023-07-08T09:06:39;30.60;99.90
26336;DHT22;14047;50.936;4.654;2023-07-08T09:09:15;30.70;99.90
26336;DHT22;14047;50.936;4.654;2023-07-08T09:14:29;31.00;99.90
26336;DHT22;14047;50.936;4.654;2023-07-08T09:19:43;30.90;99.90
26336;DHT22;14047;50.936;4.654;2023-07-08T09:22:32;31.00;99.90
26336;DHT22;14047;50.936;4.654;2023-07-08T09:25:24;31.00;99.90
26336;DHT22;14047;50.936;4.654;2023-07-08T09:27:50;31.00;99.90
26336;DHT22;14047;50.936;4.654;2023-07-08T09:30:20;31.00;99.90
26336;DHT22;14047;50.936;4.654;2023-07-08T09:32:49;31.10;99.90
26336;DHT22;14047;50.936;4.654;2023-07-08T09:35:27;31.20;99.90
26336;DHT22;14047;50.936;4.654;2023-07-08T09:37:54;31.20;99.90
26336;DHT22;14047;50.936;4.654;2023-07-08T09:40:30;31.20;99.90
26336;DHT22;14047;50.936;4.654;2023-07-08T09:43:16;31.30;99.90
26336;DHT22;14047;50.936;4.654;2023-07-08T09:45:47;31.50;99.90
26336;DHT22;14047;50.936;4.654;2023-07-08T09:48:25;31.40;99.90
26336;DHT22;14047;50.936;4.654;2023-07-08T09:50:52;31.40;99.90
26336;DHT22;14047;50.936;4.654;2023-07-08T09:53:19;31.60;99.90
26336;DHT22;14047;50.936;4.654;2023-07-08T09:55:46;31.80;99.90
26336;DHT22;14047;50.936;4.654;2023-07-08T10:00:55;32.00;99.90
26336;DHT22;14047;50.936;4.654;2023-07-08T10:03:26;32.10;99.90
26336;DHT22;14047;50.936;4.654;2023-07-08T10:05:55;32.30;99.90
26336;DHT22;14047;50.936;4.654;2023-07-08T10:08:25;32.50;99.90
26336;DHT22;14047;50.936;4.654;2023-07-08T10:11:09;32.50;99.90
26336;DHT22;14047;50.936;4.654;2023-07-08T10:13:42;31.40;99.90
26336;DHT22;14047;50.936;4.654;2023-07-08T10:16:31;31.50;99.90
26336;DHT22;14047;50.936;4.654;2023-07-08T10:18:58;31.80;99.90
26336;DHT22;14047;50.936;4.654;2023-07-08T10:24:29;32.30;99.90
26336;DHT22;14047;50.936;4.654;2023-07-08T10:30:30;32.00;99.90
26336;DHT22;14047;50.936;4.654;2023-07-08T10:33:11;32.10;99.90
26336;DHT22;14047;50.936;4.654;2023-07-08T10:36:09;31.40;99.90
26336;DHT22;14047;50.936;4.654;2023-07-08T10:43:00;31.50;99.90
26336;DHT22;14047;50.936;4.654;2023-07-08T10:45:09;31.60;99.90
26336;DHT22;14047;50.936;4.654;2023-07-08T10:56:04;32.10;99.90
26336;DHT22;14047;50.936;4.654;2023-07-08T10:58:42;32.40;99.90
26336;DHT22;14047;50.936;4.654;2023-07-08T11:01:36;32.70;99.90
26336;DHT22;14047;50.936;4.654;2023-07-08T11:06:51;33.30;98.80
26336;DHT22;14047;50.936;4.654;2023-07-08T11:09:35;33.20;99.40
26336;DHT22;14047;50.936;4.654;2023-07-08T11:12:22;33.30;99.00
26336;DHT22;14047;50.936;4.654;2023-07-08T11:14:54;32.90;98.00
26336;DHT22;14047;50.936;4.654;2023-07-08T11:18:05;32.90;99.00
26336;DHT22;14047;50.936;4.654;2023-07-08T11:20:43;32.80;99.90
26336;DHT22;14047;50.936;4.654;2023-07-08T11:25:37;33.50;99.80
26336;DHT22;14047;50.936;4.654;2023-07-08T11:28:10;33.80;99.90
26336;DHT22;14047;50.936;4.654;2023-07-08T11:30:38;34.00;99.80
26336;DHT22;14047;50.936;4.654;2023-07-08T11:33:11;34.10;99.80
26336;DHT22;14047;50.936;4.654;2023-07-08T11:35:40;33.70;99.90
26336;DHT22;14047;50.936;4.654;2023-07-08T11:38:14;33.80;99.90
26336;DHT22;14047;50.936;4.654;2023-07-08T11:40:56;34.10;99.90
26336;DHT22;14047;50.936;4.654;2023-07-08T11:43:26;34.30;99.90
26336;DHT22;14047;50.936;4.654;2023-07-08T11:45:56;34.60;99.90
26336;DHT22;14047;50.936;4.654;2023-07-08T11:48:27;34.80;99.90
26336;DHT22;14047;50.936;4.654;2023-07-08T11:50:55;34.50;99.20
26336;DHT22;14047;50.936;4.654;2023-07-08T11:53:35;34.60;99.60
26336;DHT22;14047;50.936;4.654;2023-07-08T11:58:51;35.00;98.20
26336;DHT22;14047;50.936;4.654;2023-07-08T12:01:22;34.80;98.30
26336;DHT22;14047;50.936;4.654;2023-07-08T12:04:00;34.50;99.00
26336;DHT22;14047;50.936;4.654;2023-07-08T12:08:59;34.80;98.00
26336;DHT22;14047;50.936;4.654;2023-07-08T12:11:31;35.30;96.10
26336;DHT22;14047;50.936;4.654;2023-07-08T12:14:03;35.70;95.30
26336;DHT22;14047;50.936;4.654;2023-07-08T12:16:31;36.00;94.70
26336;DHT22;14047;50.936;4.654;2023-07-08T12:18:59;36.20;94.10
26336;DHT22;14047;50.936;4.654;2023-07-08T12:21:27;36.30;94.20
26336;DHT22;14047;50.936;4.654;2023-07-08T12:23:53;36.50;93.90
26336;DHT22;14047;50.936;4.654;2023-07-08T12:26:21;36.70;93.50
26336;DHT22;14047;50.936;4.654;2023-07-08T12:28:48;36.90;92.00
26336;DHT22;14047;50.936;4.654;2023-07-08T12:31:22;37.10;92.30
26336;DHT22;14047;50.936;4.654;2023-07-08T12:33:49;37.20;92.60
26336;DHT22;14047;50.936;4.654;2023-07-08T12:36:22;37.40;92.30
26336;DHT22;14047;50.936;4.654;2023-07-08T12:38:51;37.50;90.40
26336;DHT22;14047;50.936;4.654;2023-07-08T12:41:21;37.20;90.50
26336;DHT22;14047;50.936;4.654;2023-07-08T12:43:48;36.50;92.00
26336;DHT22;14047;50.936;4.654;2023-07-08T12:46:17;36.70;93.10
26336;DHT22;14047;50.936;4.654;2023-07-08T12:48:43;37.00;92.70
26336;DHT22;14047;50.936;4.654;2023-07-08T12:51:15;37.40;92.10
26336;DHT22;14047;50.936;4.654;2023-07-08T12:53:42;37.90;92.30
26336;DHT22;14047;50.936;4.654;2023-07-08T12:56:09;38.10;90.10
26336;DHT22;14047;50.936;4.654;2023-07-08T12:58:44;37.90;90.90
26336;DHT22;14047;50.936;4.654;2023-07-08T13:01:22;37.90;90.90
26336;DHT22;14047;50.936;4.654;2023-07-08T13:04:05;38.20;90.60
26336;DHT22;14047;50.936;4.654;2023-07-08T13:06:33;37.90;91.60
26336;DHT22;14047;50.936;4.654;2023-07-08T13:09:24;37.50;92.50
26336;DHT22;14047;50.936;4.654;2023-07-08T13:11:54;36.80;91.50
26336;DHT22;14047;50.936;4.654;2023-07-08T13:14:22;35.60;91.40
26336;DHT22;14047;50.936;4.654;2023-07-08T13:16:49;35.00;91.40
26336;DHT22;14047;50.936;4.654;2023-07-08T13:19:15;34.30;91.50
26336;DHT22;14047;50.936;4.654;2023-07-08T13:21:42;33.60;92.20
26336;DHT22;14047;50.936;4.654;2023-07-08T13:24:10;33.00;93.20
26336;DHT22;14047;50.936;4.654;2023-07-08T13:26:39;32.10;96.50
26336;DHT22;14047;50.936;4.654;2023-07-08T13:29:13;31.50;97.70
26336;DHT22;14047;50.936;4.654;2023-07-08T13:31:40;31.00;99.80
26336;DHT22;14047;50.936;4.654;2023-07-08T13:34:15;30.60;99.90
26336;DHT22;14047;50.936;4.654;2023-07-08T13:36:43;30.10;99.90
26336;DHT22;14047;50.936;4.654;2023-07-08T13:39:15;30.00;99.90
26336;DHT22;14047;50.936;4.654;2023-07-08T13:41:43;29.90;99.90
26336;DHT22;14047;50.936;4.654;2023-07-08T13:44:10;30.00;99.90
26336;DHT22;14047;50.936;4.654;2023-07-08T13:46:51;29.90;99.90
26336;DHT22;14047;50.936;4.654;2023-07-08T13:51:46;29.50;99.90
26336;DHT22;14047;50.936;4.654;2023-07-08T13:54:23;29.20;99.90
26336;DHT22;14047;50.936;4.654;2023-07-08T13:56:50;28.80;99.90
26336;DHT22;14047;50.936;4.654;2023-07-08T13:59:25;28.50;99.90
26336;DHT22;14047;50.936;4.654;2023-07-08T14:01:53;28.30;99.90
26336;DHT22;14047;50.936;4.654;2023-07-08T14:04:31;28.20;99.90
26336;DHT22;14047;50.936;4.654;2023-07-08T14:06:58;28.20;99.90
26336;DHT22;14047;50.936;4.654;2023-07-08T14:09:24;28.20;99.90
26336;DHT22;14047;50.936;4.654;2023-07-08T14:11:51;28.30;99.90
26336;DHT22;14047;50.936;4.654;2023-07-08T14:14:18;28.50;99.90
26336;DHT22;14047;50.936;4.654;2023-07-08T14:16:46;28.60;99.90
26336;DHT22;14047;50.936;4.654;2023-07-08T14:19:22;28.90;99.90
26336;DHT22;14047;50.936;4.654;2023-07-08T14:21:55;29.20;99.90
26336;DHT22;14047;50.936;4.654;2023-07-08T14:24:22;29.40;99.90
26336;DHT22;14047;50.936;4.654;2023-07-08T14:26:47;29.80;99.90
26336;DHT22;14047;50.936;4.654;2023-07-08T14:29:14;30.00;99.90
26336;DHT22;14047;50.936;4.654;2023-07-08T14:31:40;29.80;99.90
26336;DHT22;14047;50.936;4.654;2023-07-08T14:34:09;30.20;99.90
26336;DHT22;14047;50.936;4.654;2023-07-08T14:36:36;30.50;99.90
26336;DHT22;14047;50.936;4.654;2023-07-08T14:39:12;30.90;99.90
26336;DHT22;14047;50.936;4.654;2023-07-08T14:41:40;32.40;99.90
26336;DHT22;14047;50.936;4.654;2023-07-08T14:46:44;36.60;95.80
26336;DHT22;14047;50.936;4.654;2023-07-08T14:49:15;38.20;92.80
26336;DHT22;14047;50.936;4.654;2023-07-08T14:51:41;40.00;90.00
26336;DHT22;14047;50.936;4.654;2023-07-08T14:54:07;41.40;79.30
26336;DHT22;14047;50.936;4.654;2023-07-08T14:56:33;42.20;74.10
26336;DHT22;14047;50.936;4.654;2023-07-08T14:58:59;42.70;70.80
26336;DHT22;14047;50.936;4.654;2023-07-08T15:01:25;42.00;74.20
26336;DHT22;14047;50.936;4.654;2023-07-08T15:03:56;41.70;73.30
26336;DHT22;14047;50.936;4.654;2023-07-08T15:06:24;41.20;73.00
26336;DHT22;14047;50.936;4.654;2023-07-08T15:08:50;41.40;71.90
26336;DHT22;14047;50.936;4.654;2023-07-08T15:11:18;42.50;69.30
26336;DHT22;14047;50.936;4.654;2023-07-08T15:13:44;43.20;64.10
26336;DHT22;14047;50.936;4.654;2023-07-08T15:16:14;42.90;61.80
26336;DHT22;14047;50.936;4.654;2023-07-08T15:18:41;42.40;60.00
26336;DHT22;14047;50.936;4.654;2023-07-08T15:21:11;42.90;61.10
26336;DHT22;14047;50.936;4.654;2023-07-08T15:23:38;43.30;59.90
26336;DHT22;14047;50.936;4.654;2023-07-08T15:26:04;44.40;58.50
26336;DHT22;14047;50.936;4.654;2023-07-08T15:28:46;45.00;59.30
26336;DHT22;14047;50.936;4.654;2023-07-08T15:31:17;46.40;57.10
26336;DHT22;14047;50.936;4.654;2023-07-08T15:33:44;47.20;55.30
26336;DHT22;14047;50.936;4.654;2023-07-08T15:36:11;47.70;53.50
26336;DHT22;14047;50.936;4.654;2023-07-08T15:38:39;48.00;52.90
26336;DHT22;14047;50.936;4.654;2023-07-08T15:41:17;48.60;51.50
26336;DHT22;14047;50.936;4.654;2023-07-08T15:43:44;49.00;51.30
26336;DHT22;14047;50.936;4.654;2023-07-08T15:46:10;48.50;51.90
26336;DHT22;14047;50.936;4.654;2023-07-08T15:48:36;49.10;50.70
26336;DHT22;14047;50.936;4.654;2023-07-08T15:51:02;49.50;50.40
26336;DHT22;14047;50.936;4.654;2023-07-08T15:53:28;49.60;49.80
26336;DHT22;14047;50.936;4.654;2023-07-08T15:55:54;48.50;51.80
26336;DHT22;14047;50.936;4.654;2023-07-08T15:58:29;47.70;52.00
26336;DHT22;14047;50.936;4.654;2023-07-08T16:01:01;47.60;52.50
26336;DHT22;14047;50.936;4.654;2023-07-08T16:03:29;47.30;53.50
26336;DHT22;14047;50.936;4.654;2023-07-08T16:05:57;47.30;53.40
26336;DHT22;14047;50.936;4.654;2023-07-08T16:08:24;46.30;54.10
26336;DHT22;14047;50.936;4.654;2023-07-08T16:11:02;46.00;54.60
26336;DHT22;14047;50.936;4.654;2023-07-08T16:13:32;45.70;55.60
26336;DHT22;14047;50.936;4.654;2023-07-08T16:15:59;46.20;55.50
26336;DHT22;14047;50.936;4.654;2023-07-08T16:18:25;47.00;54.90
26336;DHT22;14047;50.936;4.654;2023-07-08T16:20:51;47.50;54.70
26336;DHT22;14047;50.936;4.654;2023-07-08T16:23:17;47.30;54.70
26336;DHT22;14047;50.936;4.654;2023-07-08T16:25:48;47.20;55.20
26336;DHT22;14047;50.936;4.654;2023-07-08T16:28:38;47.60;54.90
26336;DHT22;14047;50.936;4.654;2023-07-08T16:31:26;47.30;55.10
26336;DHT22;14047;50.936;4.654;2023-07-08T16:33:53;45.90;56.40